createdAt,value
2019-03-22T00:00:57.593Z,93.32
2019-03-22T00:01:57.575Z,92.94
2019-03-22T00:02:57.539Z,93.27
2019-03-22T00:03:57.520Z,93.46
2019-03-22T00:04:57.487Z,93.41
2019-03-22T00:05:57.458Z,93.18
2019-03-22T00:06:57.440Z,93.55
2019-03-22T00:07:57.409Z,93.18
2019-03-22T00:08:57.379Z,93.46
2019-03-22T00:09:57.362Z,93.94
2019-03-22T00:10:57.325Z,93.75
2019-03-22T00:11:57.316Z,93.65
2019-03-22T00:12:57.273Z,93.84
2019-03-22T00:13:57.246Z,94.22
2019-03-22T00:14:57.221Z,94.03
2019-03-22T00:15:57.195Z,93.94
2019-03-22T00:16:57.173Z,94.03
2019-03-22T00:17:57.147Z,93.84
2019-03-22T00:18:57.114Z,94.13
2019-03-22T00:19:57.089Z,94.89
2019-03-22T00:20:57.059Z,94.79
2019-03-22T00:21:57.043Z,94.6
2019-03-22T00:22:57.009Z,94.42
2019-03-22T00:23:56.979Z,94.79
2019-03-22T00:24:56.951Z,95.08
2019-03-22T00:25:56.928Z,95.08
2019-03-22T00:26:56.899Z,94.98
2019-03-22T00:27:56.870Z,94.79
2019-03-22T00:28:56.852Z,94.89
2019-03-22T00:29:56.820Z,94.7
2019-03-22T00:30:56.791Z,95.36
2019-03-22T00:31:56.773Z,95.17
2019-03-22T00:32:56.740Z,95.08
2019-03-22T00:33:56.711Z,95.36
2019-03-22T00:34:56.690Z,95.65
2019-03-22T00:35:56.658Z,95.65
2019-03-22T00:36:56.629Z,95.65
2019-03-22T00:37:56.615Z,95.75
2019-03-22T00:38:56.576Z,95.65
2019-03-22T00:39:56.552Z,96.03
2019-03-22T00:40:56.536Z,96.5
2019-03-22T00:41:56.501Z,96.03
2019-03-22T00:42:56.468Z,96.12
2019-03-22T00:43:56.486Z,96.03
2019-03-22T00:44:56.430Z,95.98
2019-03-22T00:45:56.416Z,96.41
2019-03-22T00:46:56.406Z,96.55
2019-03-22T00:47:56.340Z,96.45
2019-03-22T00:48:56.309Z,96.65
2019-03-22T00:49:56.287Z,96.84
2019-03-22T00:50:56.252Z,96.65
2019-03-22T00:51:56.232Z,96.84
2019-03-22T00:52:56.198Z,96.93
2019-03-22T00:53:56.174Z,96.84
2019-03-22T00:54:56.151Z,97.22
2019-03-22T00:55:56.127Z,97.03
2019-03-22T00:56:56.097Z,97.6
2019-03-22T00:57:56.086Z,97.6
2019-03-22T00:58:56.040Z,97.5
2019-03-22T00:59:56.012Z,97.22
2019-03-22T01:00:55.986Z,97.22
2019-03-22T01:01:55.958Z,97.5
2019-03-22T01:02:55.932Z,97.88
2019-03-22T01:03:55.905Z,97.69
2019-03-22T01:04:55.880Z,97.78
2019-03-22T01:05:55.854Z,98.17
2019-03-22T01:06:55.823Z,98.17
2019-03-22T01:07:55.794Z,98.07
2019-03-22T01:08:55.773Z,98.74
2019-03-22T01:09:55.744Z,98.36
2019-03-22T01:10:55.711Z,98.17
2019-03-22T01:11:55.751Z,98.17
2019-03-22T01:12:55.657Z,98.74
2019-03-22T01:13:55.637Z,98.64
2019-03-22T01:14:55.601Z,98.45
2019-03-22T01:15:55.574Z,98.45
2019-03-22T01:16:55.553Z,98.36
2019-03-22T01:17:55.523Z,98.45
2019-03-22T01:18:55.494Z,98.64
2019-03-22T01:19:55.468Z,98.64
2019-03-22T01:20:55.442Z,98.74
2019-03-22T01:21:55.416Z,99.11
2019-03-22T01:22:55.394Z,98.74
2019-03-22T01:23:55.361Z,99.02
2019-03-22T01:24:55.335Z,98.93
2019-03-22T01:25:55.302Z,98.83
2019-03-22T01:26:55.278Z,99.4
2019-03-22T01:27:55.250Z,99.02
2019-03-22T01:28:55.228Z,99.3
2019-03-22T01:29:55.194Z,99.5
2019-03-22T01:30:55.173Z,99.11
2019-03-22T01:31:55.141Z,99.11
2019-03-22T01:32:55.112Z,99.3
2019-03-22T01:33:55.083Z,99.21
2019-03-22T01:34:55.056Z,99.5
2019-03-22T01:35:55.028Z,99.99
2019-03-22T01:36:55.010Z,99.11
2019-03-22T01:37:54.976Z,99.69
2019-03-22T01:38:54.951Z,99.97
2019-03-22T01:39:54.924Z,99.5
2019-03-22T01:40:54.893Z,99.5
2019-03-22T01:41:54.867Z,99.78
2019-03-22T01:42:54.849Z,99.78
2019-03-22T01:43:54.810Z,99.78
2019-03-22T01:44:54.782Z,99.69
2019-03-22T01:45:54.754Z,99.88
2019-03-22T01:46:54.726Z,99.99
2019-03-22T01:47:54.701Z,99.88
2019-03-22T01:48:54.674Z,99.97
2019-03-22T01:49:54.649Z,99.88
2019-03-22T01:50:54.623Z,99.99
2019-03-22T01:51:54.592Z,99.99
2019-03-22T01:52:54.327Z,99.99
2019-03-22T01:53:54.537Z,99.97
2019-03-22T01:54:54.508Z,99.97
2019-03-22T01:55:54.540Z,99.99
2019-03-22T01:56:54.458Z,99.99
2019-03-22T01:57:56.351Z,99.99
2019-03-22T01:58:54.400Z,99.99
2019-03-22T01:59:54.370Z,99.99
2019-03-22T02:00:54.345Z,99.99
2019-03-22T02:01:54.315Z,99.99
2019-03-22T02:02:54.305Z,99.99
2019-03-22T02:03:54.261Z,99.99
2019-03-22T02:04:54.234Z,99.99
2019-03-22T02:05:54.204Z,99.99
2019-03-22T02:06:54.176Z,99.99
2019-03-22T02:07:54.150Z,99.99
2019-03-22T02:08:54.127Z,99.99
2019-03-22T02:09:54.097Z,99.99
2019-03-22T02:10:54.069Z,99.99
2019-03-22T02:11:54.040Z,99.99
2019-03-22T02:12:54.015Z,99.99
2019-03-22T02:13:53.984Z,99.99
2019-03-22T02:14:53.958Z,99.99
2019-03-22T02:15:53.932Z,99.99
2019-03-22T02:16:53.903Z,99.99
2019-03-22T02:17:53.656Z,99.99
2019-03-22T02:18:53.851Z,99.99
2019-03-22T02:19:53.824Z,99.99
2019-03-22T02:20:53.792Z,99.99
2019-03-22T02:21:53.767Z,99.99
2019-03-22T02:22:53.745Z,99.99
2019-03-22T02:23:54.720Z,99.99
2019-03-22T02:24:53.687Z,99.99
2019-03-22T02:25:53.660Z,99.99
2019-03-22T02:26:53.636Z,99.99
2019-03-22T02:28:03.630Z,99.99
2019-03-22T02:28:53.576Z,99.99
2019-03-22T02:29:53.550Z,99.99
2019-03-22T02:30:53.524Z,99.99
2019-03-22T02:31:53.495Z,99.99
2019-03-22T02:32:53.488Z,99.99
2019-03-22T02:33:53.472Z,99.99
2019-03-22T02:34:53.408Z,99.99
2019-03-22T02:35:54.149Z,99.99
2019-03-22T02:36:53.357Z,99.99
2019-03-22T02:37:53.333Z,99.99
2019-03-22T02:38:53.310Z,99.99
2019-03-22T02:39:53.279Z,99.99
2019-03-22T02:40:53.251Z,99.99
2019-03-22T02:41:53.230Z,99.99
2019-03-22T02:42:53.194Z,99.99
2019-03-22T02:43:54.690Z,99.99
2019-03-22T02:44:53.141Z,99.99
2019-03-22T02:45:53.135Z,99.99
2019-03-22T02:46:53.086Z,99.99
2019-03-22T02:47:53.062Z,99.99
2019-03-22T02:48:53.035Z,99.99
2019-03-22T02:49:53.019Z,99.99
2019-03-22T02:50:55.957Z,99.99
2019-03-22T02:51:52.955Z,99.99
2019-03-22T02:52:52.953Z,99.99
2019-03-22T02:53:52.892Z,99.99
2019-03-22T02:54:52.866Z,99.99
2019-03-22T02:55:52.900Z,99.99
2019-03-22T02:56:52.822Z,99.99
2019-03-22T02:57:52.822Z,99.99
2019-03-22T02:58:52.798Z,99.99
2019-03-22T02:59:52.738Z,99.99
2019-03-22T03:00:52.721Z,99.99
2019-03-22T03:01:52.683Z,99.99
2019-03-22T03:02:52.648Z,99.99
2019-03-22T03:03:52.624Z,99.99
2019-03-22T03:04:52.600Z,99.99
2019-03-22T03:05:52.565Z,99.99
2019-03-22T03:06:52.554Z,99.99
2019-03-22T03:07:52.515Z,99.99
2019-03-22T03:08:52.493Z,99.99
2019-03-22T03:09:52.458Z,99.99
2019-03-22T03:10:52.444Z,99.99
2019-03-22T03:11:52.410Z,99.99
2019-03-22T03:12:52.373Z,99.99
2019-03-22T03:13:52.343Z,99.99
2019-03-22T03:14:52.319Z,99.99
2019-03-22T03:15:52.293Z,99.99
2019-03-22T03:16:52.057Z,99.99
2019-03-22T03:17:52.247Z,99.99
2019-03-22T03:18:52.208Z,99.99
2019-03-22T03:19:52.182Z,99.99
2019-03-22T03:20:52.151Z,99.99
2019-03-22T03:21:52.126Z,99.99
2019-03-22T03:22:52.138Z,99.99
2019-03-22T03:23:52.078Z,99.99
2019-03-22T03:24:52.182Z,99.99
2019-03-22T03:25:52.024Z,99.99
2019-03-22T03:26:51.985Z,99.99
2019-03-22T03:27:51.973Z,99.99
2019-03-22T03:28:51.930Z,99.99
2019-03-22T03:29:51.904Z,99.99
2019-03-22T03:30:51.933Z,99.99
2019-03-22T03:31:51.854Z,99.99
2019-03-22T03:32:51.879Z,99.99
2019-03-22T03:33:51.806Z,99.99
2019-03-22T03:34:51.550Z,99.99
2019-03-22T03:35:51.746Z,99.99
2019-03-22T03:36:51.727Z,99.99
2019-03-22T03:37:51.763Z,99.99
2019-03-22T03:38:51.666Z,99.99
2019-03-22T03:39:51.644Z,99.99
2019-03-22T03:40:51.600Z,99.99
2019-03-22T03:41:51.570Z,99.99
2019-03-22T03:42:51.556Z,99.99
2019-03-22T03:43:51.517Z,99.99
2019-03-22T03:44:51.488Z,99.99
2019-03-22T03:45:51.462Z,99.99
2019-03-22T03:46:51.440Z,99.99
2019-03-22T03:47:51.408Z,99.99
2019-03-22T03:48:51.380Z,99.99
2019-03-22T03:49:51.352Z,99.99
2019-03-22T03:50:51.330Z,99.99
2019-03-22T03:51:51.296Z,99.99
2019-03-22T03:52:51.272Z,99.99
2019-03-22T03:53:51.241Z,99.99
2019-03-22T03:54:51.212Z,99.99
2019-03-22T03:55:51.185Z,99.99
2019-03-22T03:56:51.161Z,99.99
2019-03-22T03:57:51.128Z,99.99
2019-03-22T03:58:55.140Z,99.99
2019-03-22T03:59:51.074Z,99.99
2019-03-22T04:00:51.048Z,99.99
2019-03-22T04:01:51.020Z,99.99
2019-03-22T04:02:50.989Z,99.99
2019-03-22T04:03:50.976Z,99.99
2019-03-22T04:04:50.935Z,99.99
2019-03-22T04:05:50.923Z,99.99
2019-03-22T04:06:50.884Z,99.99
2019-03-22T04:07:50.851Z,99.99
2019-03-22T04:08:50.821Z,99.99
2019-03-22T04:09:50.793Z,99.99
2019-03-22T04:10:50.780Z,99.99
2019-03-22T04:11:50.750Z,99.99
2019-03-22T04:12:50.714Z,99.99
2019-03-22T04:13:50.682Z,99.99
2019-03-22T04:14:50.664Z,99.99
2019-03-22T04:15:50.629Z,99.99
2019-03-22T04:16:50.601Z,99.99
2019-03-22T04:17:50.581Z,99.99
2019-03-22T04:18:50.540Z,99.99
2019-03-22T04:19:50.515Z,99.99
2019-03-22T04:20:50.492Z,99.99
2019-03-22T04:21:50.456Z,99.99
2019-03-22T04:22:50.433Z,99.99
2019-03-22T04:23:50.402Z,99.99
2019-03-22T04:24:50.385Z,99.99
2019-03-22T04:25:50.346Z,99.99
2019-03-22T04:26:50.325Z,99.99
2019-03-22T04:27:50.289Z,99.99
2019-03-22T04:28:50.270Z,99.99
2019-03-22T04:29:50.238Z,99.99
2019-03-22T04:30:50.250Z,99.99
2019-03-22T04:31:50.186Z,99.99
2019-03-22T04:32:50.160Z,99.99
2019-03-22T04:33:50.126Z,99.99
2019-03-22T04:34:50.211Z,99.99
2019-03-22T04:35:50.070Z,99.99
2019-03-22T04:36:50.034Z,99.99
2019-03-22T04:37:50.010Z,99.99
2019-03-22T04:38:50.063Z,99.99
2019-03-22T04:39:49.947Z,99.99
2019-03-22T04:40:49.923Z,99.99
2019-03-22T04:41:49.987Z,99.99
2019-03-22T04:42:49.863Z,99.99
2019-03-22T04:43:49.840Z,99.99
2019-03-22T04:44:49.809Z,99.99
2019-03-22T04:45:49.782Z,99.99
2019-03-22T04:46:49.764Z,99.99
2019-03-22T04:47:49.733Z,99.99
2019-03-22T04:48:49.691Z,99.99
2019-03-22T04:49:49.666Z,99.99
2019-03-22T04:50:49.646Z,99.99
2019-03-22T04:51:49.610Z,99.99
2019-03-22T04:52:49.582Z,99.99
2019-03-22T04:53:49.548Z,99.99
2019-03-22T04:54:50.059Z,99.99
2019-03-22T04:55:50.183Z,99.99
2019-03-22T04:56:49.824Z,99.99
2019-03-22T04:57:49.822Z,99.99
2019-03-22T04:58:50.336Z,99.99
2019-03-22T04:59:51.883Z,99.99
2019-03-22T05:00:50.299Z,99.99
2019-03-22T05:01:50.187Z,99.99
2019-03-22T05:02:49.391Z,99.99
2019-03-22T05:03:49.271Z,99.99
2019-03-22T05:04:50.037Z,99.99
2019-03-22T05:05:49.215Z,99.99
2019-03-22T05:06:49.181Z,99.99
2019-03-22T05:07:49.156Z,99.99
2019-03-22T05:08:49.125Z,99.99
2019-03-22T05:09:49.104Z,99.99
2019-03-22T05:10:49.075Z,99.99
2019-03-22T05:11:49.042Z,99.99
2019-03-22T05:12:49.016Z,99.99
2019-03-22T05:13:49.003Z,99.99
2019-03-22T05:14:48.968Z,99.99
2019-03-22T05:15:50.132Z,99.99
2019-03-22T05:16:48.902Z,99.99
2019-03-22T05:17:48.874Z,99.99
2019-03-22T05:18:48.846Z,99.99
2019-03-22T05:19:48.818Z,99.99
2019-03-22T05:20:48.787Z,99.99
2019-03-22T05:21:48.758Z,99.99
2019-03-22T05:22:48.731Z,99.99
2019-03-22T05:23:48.702Z,99.99
2019-03-22T05:24:48.672Z,99.99
2019-03-22T05:25:48.646Z,99.99
2019-03-22T05:26:48.617Z,99.99
2019-03-22T05:27:48.590Z,99.99
2019-03-22T05:28:48.561Z,99.99
2019-03-22T05:29:48.548Z,99.99
2019-03-22T05:30:48.507Z,99.99
2019-03-22T05:31:48.500Z,99.99
2019-03-22T05:32:48.447Z,99.99
2019-03-22T05:33:48.418Z,99.99
2019-03-22T05:34:48.398Z,99.99
2019-03-22T05:35:48.366Z,99.99
2019-03-22T05:36:48.343Z,99.99
2019-03-22T05:37:48.305Z,99.99
2019-03-22T05:38:48.278Z,99.99
2019-03-22T05:39:48.250Z,99.99
2019-03-22T05:40:48.222Z,99.99
2019-03-22T05:41:48.191Z,99.99
2019-03-22T05:42:48.165Z,99.99
2019-03-22T05:43:48.144Z,99.99
2019-03-22T05:44:48.120Z,99.99
2019-03-22T05:45:48.096Z,99.99
2019-03-22T05:46:49.008Z,99.99
2019-03-22T05:47:48.023Z,99.99
2019-03-22T05:48:47.995Z,99.99
2019-03-22T05:49:47.969Z,99.99
2019-03-22T05:50:47.937Z,99.99
2019-03-22T05:51:47.910Z,99.99
2019-03-22T05:52:47.886Z,99.99
2019-03-22T05:53:47.857Z,99.99
2019-03-22T05:54:47.831Z,99.99
2019-03-22T05:55:47.794Z,99.99
2019-03-22T05:56:47.765Z,99.99
2019-03-22T05:57:47.744Z,99.99
2019-03-22T05:58:47.755Z,99.99
2019-03-22T05:59:47.683Z,99.99
2019-03-22T06:00:47.417Z,99.99
2019-03-22T06:01:47.979Z,99.99
2019-03-22T06:02:47.600Z,99.99
2019-03-22T06:03:47.568Z,99.99
2019-03-22T06:04:47.545Z,99.99
2019-03-22T06:05:47.515Z,99.99
2019-03-22T06:06:47.500Z,99.99
2019-03-22T06:07:47.465Z,99.99
2019-03-22T06:08:47.438Z,99.99
2019-03-22T06:09:47.438Z,99.99
2019-03-22T06:10:47.376Z,99.99
2019-03-22T06:11:47.347Z,99.99
2019-03-22T06:12:47.316Z,99.99
2019-03-22T06:13:47.293Z,99.99
2019-03-22T06:14:47.020Z,99.99
2019-03-22T06:15:47.229Z,99.99
2019-03-22T06:16:47.205Z,99.99
2019-03-22T06:17:54.320Z,99.99
2019-03-22T06:18:47.191Z,99.99
2019-03-22T06:19:47.125Z,99.99
2019-03-22T06:20:47.090Z,99.99
2019-03-22T06:21:47.066Z,99.99
2019-03-22T06:22:47.031Z,99.99
2019-03-22T06:23:47.007Z,99.99
2019-03-22T06:24:48.179Z,99.99
2019-03-22T06:25:46.949Z,99.99
2019-03-22T06:26:46.922Z,99.99
2019-03-22T06:27:46.895Z,99.99
2019-03-22T06:28:46.864Z,99.99
2019-03-22T06:29:56.600Z,99.99
2019-03-22T06:30:46.834Z,99.99
2019-03-22T06:31:46.785Z,99.99
2019-03-22T06:32:46.755Z,99.99
2019-03-22T06:33:46.759Z,99.99
2019-03-22T06:34:46.701Z,99.99
2019-03-22T06:35:46.672Z,99.99
2019-03-22T06:36:46.655Z,99.99
2019-03-22T06:37:46.882Z,99.99
2019-03-22T06:38:46.712Z,99.99
2019-03-22T06:39:46.581Z,99.99
2019-03-22T06:40:46.746Z,99.99
2019-03-22T06:41:46.532Z,99.99
2019-03-22T06:42:46.511Z,99.99
2019-03-22T06:43:46.467Z,99.99
2019-03-22T06:44:46.420Z,99.99
2019-03-22T06:45:46.392Z,99.99
2019-03-22T06:46:46.369Z,99.99
2019-03-22T06:47:46.335Z,99.99
2019-03-22T06:48:46.311Z,99.99
2019-03-22T06:49:46.286Z,99.99
2019-03-22T06:50:46.255Z,99.99
2019-03-22T06:51:46.226Z,99.99
2019-03-22T06:52:46.202Z,99.99
2019-03-22T06:53:46.177Z,99.99
2019-03-22T06:54:46.702Z,99.99
2019-03-22T06:55:46.117Z,99.99
2019-03-22T06:56:46.090Z,99.99
2019-03-22T06:57:46.066Z,99.99
2019-03-22T06:58:46.035Z,99.99
2019-03-22T06:59:46.203Z,99.99
2019-03-22T07:00:46.008Z,99.99
2019-03-22T07:01:45.963Z,99.99
2019-03-22T07:02:45.929Z,99.99
2019-03-22T07:03:45.907Z,99.99
2019-03-22T07:04:45.877Z,99.99
2019-03-22T07:05:45.849Z,99.99
2019-03-22T07:06:45.823Z,99.99
2019-03-22T07:07:45.794Z,99.99
2019-03-22T07:08:45.766Z,99.99
2019-03-22T07:09:45.740Z,99.99
2019-03-22T07:10:45.717Z,99.99
2019-03-22T07:11:45.687Z,99.99
2019-03-22T07:12:45.668Z,99.99
2019-03-22T07:13:45.869Z,99.99
2019-03-22T07:14:45.608Z,99.99
2019-03-22T07:15:45.581Z,99.99
2019-03-22T07:16:45.549Z,99.99
2019-03-22T07:17:45.527Z,99.99
2019-03-22T07:18:45.499Z,99.99
2019-03-22T07:19:45.474Z,99.99
2019-03-22T07:20:45.444Z,99.99
2019-03-22T07:21:45.422Z,99.99
2019-03-22T07:22:45.394Z,99.99
2019-03-22T07:23:45.382Z,99.99
2019-03-22T07:24:45.345Z,99.99
2019-03-22T07:25:45.325Z,99.99
2019-03-22T07:26:45.284Z,99.99
2019-03-22T07:27:45.264Z,99.99
2019-03-22T07:28:45.503Z,99.99
2019-03-22T07:29:45.416Z,99.99
2019-03-22T07:30:45.438Z,99.99
2019-03-22T07:31:45.156Z,99.99
2019-03-22T07:32:45.131Z,99.99
2019-03-22T07:33:45.100Z,99.99
2019-03-22T07:34:45.075Z,99.99
2019-03-22T07:35:45.282Z,99.99
2019-03-22T07:36:46.940Z,99.99
2019-03-22T07:37:46.317Z,99.99
2019-03-22T07:38:45.852Z,99.99
2019-03-22T07:39:45.955Z,99.99
2019-03-22T07:40:46.065Z,99.99
2019-03-22T07:41:46.396Z,99.99
2019-03-22T07:42:44.864Z,99.93
2019-03-22T07:43:44.837Z,99.99
2019-03-22T07:44:44.814Z,99.5
2019-03-22T07:45:44.782Z,99.12
2019-03-22T07:46:44.760Z,98.83
2019-03-22T07:47:44.736Z,98.83
2019-03-22T07:48:44.709Z,99.31
2019-03-22T07:49:44.682Z,98.55
2019-03-22T07:50:44.654Z,98.08
2019-03-22T07:51:44.632Z,97.79
2019-03-22T07:52:44.603Z,97.36
2019-03-22T07:53:44.579Z,97.22
2019-03-22T07:54:44.553Z,97.46
2019-03-22T07:55:44.528Z,96.7
2019-03-22T07:56:44.512Z,96.7
2019-03-22T07:57:44.543Z,97.27
2019-03-22T07:58:44.450Z,96.41
2019-03-22T07:59:44.425Z,95.75
2019-03-22T08:00:44.400Z,96.12
2019-03-22T08:01:44.377Z,95.84
2019-03-22T08:02:44.841Z,96.12
2019-03-22T08:03:44.326Z,95.65
2019-03-22T08:04:44.301Z,95.27
2019-03-22T08:05:53.627Z,95.36
2019-03-22T08:06:44.167Z,95.17
2019-03-22T08:07:44.313Z,94.6
2019-03-22T08:08:44.379Z,94.84
2019-03-22T08:09:44.316Z,94.65
2019-03-22T08:10:44.191Z,94.17
2019-03-22T08:11:43.927Z,93.89
2019-03-22T08:12:44.385Z,93.22
2019-03-22T08:13:44.140Z,93.7
2019-03-22T08:14:44.325Z,93.41
2019-03-22T08:15:44.041Z,93.13
2019-03-22T08:16:44.016Z,92.84
2019-03-22T08:17:43.975Z,92.46
2019-03-22T08:18:43.950Z,92.36
2019-03-22T08:19:43.997Z,92.32
2019-03-22T08:20:43.941Z,91.84
2019-03-22T08:21:43.916Z,91.27
2019-03-22T08:22:43.878Z,91.27
2019-03-22T08:23:43.824Z,91.08
2019-03-22T08:24:43.809Z,90.79
2019-03-22T08:25:45.980Z,89.75
2019-03-22T08:26:44.150Z,89.69
2019-03-22T08:27:44.392Z,90.17
2019-03-22T08:28:44.107Z,89.22
2019-03-22T08:29:44.283Z,89.12
2019-03-22T08:30:46.020Z,88.55
2019-03-22T08:31:44.122Z,88.36
2019-03-22T08:32:44.128Z,87.88
2019-03-22T08:33:43.617Z,87.64
2019-03-22T08:34:43.574Z,86.88
2019-03-22T08:35:43.593Z,86.88
2019-03-22T08:36:43.550Z,86.4
2019-03-22T08:37:54.814Z,86.02
2019-03-22T08:38:43.467Z,85.64
2019-03-22T08:39:43.447Z,85.45
2019-03-22T08:40:43.420Z,84.59
2019-03-22T08:41:43.174Z,84.49
2019-03-22T08:42:43.386Z,84.49
2019-03-22T08:43:43.402Z,84.16
2019-03-22T08:44:43.511Z,83.77
2019-03-22T08:45:44.514Z,83.67
2019-03-22T08:46:44.934Z,83.2
2019-03-22T08:47:43.265Z,83.2
2019-03-22T08:48:43.263Z,83.2
2019-03-22T08:49:43.758Z,82.53
2019-03-22T08:50:43.279Z,82.91
2019-03-22T08:51:43.186Z,81.96
2019-03-22T08:52:43.143Z,82.06
2019-03-22T08:53:54.548Z,82.06
2019-03-22T08:54:43.095Z,81.38
2019-03-22T08:55:43.092Z,81.04
2019-03-22T08:56:43.084Z,80.57
2019-03-22T08:57:43.025Z,80.66
2019-03-22T08:58:43.025Z,80.38
2019-03-22T08:59:42.986Z,79.8
2019-03-22T09:00:56.245Z,79.99
2019-03-22T09:01:43.209Z,79.61
2019-03-22T09:02:42.969Z,79.23
2019-03-22T09:03:42.945Z,78.79
2019-03-22T09:04:42.948Z,78.89
2019-03-22T09:05:42.866Z,78.22
2019-03-22T09:06:42.856Z,77.65
2019-03-22T09:07:42.939Z,77.45
2019-03-22T09:08:42.902Z,77.26
2019-03-22T09:09:44.216Z,77.17
2019-03-22T09:10:42.803Z,76.69
2019-03-22T09:11:42.737Z,76.69
2019-03-22T09:12:42.690Z,76.31
2019-03-22T09:13:42.874Z,75.87
2019-03-22T09:14:42.685Z,75.49
2019-03-22T09:15:43.860Z,75.01
2019-03-22T09:16:42.656Z,74.73
2019-03-22T09:17:42.575Z,74.44
2019-03-22T09:18:42.551Z,74.34
2019-03-22T09:19:42.534Z,73.58
2019-03-22T09:20:42.584Z,73.8
2019-03-22T09:21:42.487Z,73.14
2019-03-22T09:22:42.235Z,73.23
2019-03-22T09:23:42.448Z,72.28
2019-03-22T09:24:42.427Z,72.37
2019-03-22T09:25:42.410Z,71.99
2019-03-22T09:26:50.191Z,71.42
2019-03-22T09:27:42.364Z,71.42
2019-03-22T09:28:42.512Z,70.84
2019-03-22T09:29:42.314Z,70.59
2019-03-22T09:30:42.336Z,70.68
2019-03-22T09:31:42.268Z,70.01
2019-03-22T09:32:42.275Z,70.11
2019-03-22T09:33:42.751Z,69.73
2019-03-22T09:34:42.361Z,69.15
2019-03-22T09:35:42.186Z,69.35
2019-03-22T09:36:42.213Z,69.06
2019-03-22T09:37:42.379Z,68.58
2019-03-22T09:38:42.171Z,68.1
2019-03-22T09:39:42.753Z,68.13
2019-03-22T09:40:42.097Z,68.04
2019-03-22T09:41:42.533Z,67.56
2019-03-22T09:42:42.596Z,66.99
2019-03-22T09:43:42.615Z,66.99
2019-03-22T09:44:47.148Z,66.51
2019-03-22T09:45:42.666Z,66.32
2019-03-22T09:46:42.373Z,66.03
2019-03-22T09:47:42.587Z,66.22
2019-03-22T09:48:42.959Z,65.65
2019-03-22T09:49:42.225Z,65.11
2019-03-22T09:50:42.857Z,65.2
2019-03-22T09:51:42.323Z,64.92
2019-03-22T09:52:42.771Z,64.72
2019-03-22T09:53:43.102Z,64.63
2019-03-22T09:54:42.229Z,64.25
2019-03-22T09:55:42.551Z,63.86
2019-03-22T09:56:50.051Z,63.57
2019-03-22T09:57:42.125Z,62.9
2019-03-22T09:58:42.366Z,62.81
2019-03-22T09:59:42.061Z,61.94
2019-03-22T10:00:42.381Z,62.14
2019-03-22T10:01:42.254Z,62.46
2019-03-22T10:02:41.957Z,62.17
2019-03-22T10:03:45.406Z,61.69
2019-03-22T10:04:41.669Z,61.6
2019-03-22T10:05:41.930Z,61.69
2019-03-22T10:06:42.746Z,61.02
2019-03-22T10:07:41.906Z,61.21
2019-03-22T10:08:42.798Z,61.11
2019-03-22T10:09:42.050Z,60.35
2019-03-22T10:10:42.638Z,60.06
2019-03-22T10:11:42.062Z,60.16
2019-03-22T10:12:42.561Z,59.9
2019-03-22T10:13:42.241Z,59.9
2019-03-22T10:14:42.013Z,59.42
2019-03-22T10:15:43.156Z,59.04
2019-03-22T10:16:42.603Z,58.56
2019-03-22T10:17:41.647Z,57.79
2019-03-22T10:18:41.927Z,57.89
2019-03-22T10:19:44.830Z,56.83
2019-03-22T10:20:43.163Z,57.21
2019-03-22T10:21:41.628Z,57.21
2019-03-22T10:22:42.241Z,56.67
2019-03-22T10:23:42.231Z,56.19
2019-03-22T10:24:41.697Z,56.29
2019-03-22T10:25:41.629Z,55.62
2019-03-22T10:26:41.564Z,55.13
2019-03-22T10:27:41.706Z,54.75
2019-03-22T10:28:41.933Z,54.27
2019-03-22T10:29:41.600Z,54.49
2019-03-22T10:30:41.633Z,53.91
2019-03-22T10:31:41.155Z,53.82
2019-03-22T10:32:41.567Z,53.72
2019-03-22T10:33:41.396Z,53.24
2019-03-22T10:34:42.399Z,52.48
2019-03-22T10:35:41.711Z,52.09
2019-03-22T10:36:42.026Z,51.61
2019-03-22T10:37:41.639Z,50.94
2019-03-22T10:38:41.778Z,50.56
2019-03-22T10:39:41.376Z,50.75
2019-03-22T10:40:41.462Z,50.2
2019-03-22T10:41:41.430Z,50.01
2019-03-22T10:42:41.567Z,49.72
2019-03-22T10:43:41.524Z,50.01
2019-03-22T10:44:42.607Z,49.62
2019-03-22T10:45:41.713Z,49.52
2019-03-22T10:46:41.258Z,49.15
2019-03-22T10:47:41.320Z,48.76
2019-03-22T10:48:42.416Z,48.47
2019-03-22T10:49:44.477Z,48.57
2019-03-22T10:50:40.791Z,47.89
2019-03-22T10:51:41.185Z,47.41
2019-03-22T10:52:41.080Z,47.03
2019-03-22T10:53:41.204Z,47.03
2019-03-22T10:54:41.163Z,46.94
2019-03-22T10:55:41.266Z,47.05
2019-03-22T10:56:41.027Z,47.03
2019-03-22T10:57:43.077Z,47.05
2019-03-22T10:58:40.538Z,46.58
2019-03-22T10:59:40.514Z,47.05
2019-03-22T11:00:40.501Z,46.77
2019-03-22T11:02:03.452Z,46.28
2019-03-22T11:02:40.467Z,46.28
2019-03-22T11:03:40.411Z,46.19
2019-03-22T11:04:40.434Z,46.28
2019-03-22T11:05:40.414Z,46.02
2019-03-22T11:06:40.394Z,46.12
2019-03-22T11:07:40.382Z,45.92
2019-03-22T11:08:40.359Z,45.73
2019-03-22T11:09:40.367Z,45.25
2019-03-22T11:10:40.367Z,45.54
2019-03-22T11:11:40.309Z,45.15
2019-03-22T11:12:40.288Z,45.15
2019-03-22T11:13:40.274Z,45.06
2019-03-22T11:14:40.253Z,44.87
2019-03-22T11:15:50.489Z,44.58
2019-03-22T11:16:40.217Z,44.77
2019-03-22T11:17:40.200Z,44.12
2019-03-22T11:18:40.224Z,44.6
2019-03-22T11:19:40.171Z,44.31
2019-03-22T11:20:40.153Z,44.02
2019-03-22T11:21:40.133Z,43.54
2019-03-22T11:22:40.214Z,43.54
2019-03-22T11:23:40.852Z,43.26
2019-03-22T11:24:42.524Z,43.16
2019-03-22T11:25:40.515Z,42.77
2019-03-22T11:26:40.253Z,42.49
2019-03-22T11:27:40.258Z,42.39
2019-03-22T11:28:40.834Z,42.49
2019-03-22T11:29:41.020Z,42
2019-03-22T11:30:40.038Z,41.72
2019-03-22T11:31:42.950Z,41.62
2019-03-22T11:32:40.920Z,41.82
2019-03-22T11:33:40.953Z,41.64
2019-03-22T11:34:40.576Z,41.62
2019-03-22T11:35:40.658Z,41.55
2019-03-22T11:36:40.533Z,41.83
2019-03-22T11:37:40.141Z,41.83
2019-03-22T11:38:40.419Z,41.74
2019-03-22T11:39:41.528Z,41.45
2019-03-22T11:40:40.810Z,41.45
2019-03-22T11:41:40.479Z,41.55
2019-03-22T11:42:39.935Z,41.16
2019-03-22T11:43:40.037Z,41.47
2019-03-22T11:44:40.864Z,40.99
2019-03-22T11:45:40.115Z,40.89
2019-03-22T11:46:40.268Z,40.99
2019-03-22T11:47:40.135Z,40.89
2019-03-22T11:48:39.989Z,40.61
2019-03-22T11:49:39.653Z,40.61
2019-03-22T11:50:39.635Z,40.41
2019-03-22T11:51:40.299Z,40.61
2019-03-22T11:52:39.606Z,40.51
2019-03-22T11:53:39.687Z,40.8
2019-03-22T11:54:39.569Z,40.7
2019-03-22T11:55:39.319Z,40.8
2019-03-22T11:56:39.540Z,40.8
2019-03-22T11:57:39.519Z,40.61
2019-03-22T11:58:39.506Z,40.7
2019-03-22T11:59:39.492Z,39.93
2019-03-22T12:00:39.472Z,40.31
2019-03-22T12:01:39.455Z,40.41
2019-03-22T12:02:39.445Z,40.14
2019-03-22T12:03:39.428Z,40.05
2019-03-22T12:04:39.412Z,39.95
2019-03-22T12:05:42.982Z,39.76
2019-03-22T12:06:39.425Z,39.66
2019-03-22T12:07:39.358Z,39.37
2019-03-22T12:08:39.353Z,39.37
2019-03-22T12:09:39.335Z,39.47
2019-03-22T12:10:39.312Z,39.36
2019-03-22T12:11:39.295Z,39.37
2019-03-22T12:12:39.276Z,39.45
2019-03-22T12:13:39.273Z,39.36
2019-03-22T12:14:39.250Z,39.26
2019-03-22T12:15:39.233Z,39.37
2019-03-22T12:16:39.221Z,39.45
2019-03-22T12:17:39.199Z,39.26
2019-03-22T12:18:39.182Z,39.47
2019-03-22T12:19:39.165Z,39.28
2019-03-22T12:20:39.152Z,39.47
2019-03-22T12:21:39.136Z,39.66
2019-03-22T12:22:40.943Z,39.28
2019-03-22T12:23:39.108Z,39.28
2019-03-22T12:24:39.130Z,39.18
2019-03-22T12:25:39.083Z,39.09
2019-03-22T12:26:38.818Z,38.79
2019-03-22T12:27:39.365Z,38.7
2019-03-22T12:28:39.025Z,38.7
2019-03-22T12:29:39.012Z,38.89
2019-03-22T12:30:38.995Z,38.79
2019-03-22T12:31:38.976Z,38.99
2019-03-22T12:32:38.963Z,38.7
2019-03-22T12:33:38.949Z,38.53
2019-03-22T12:34:38.935Z,38.91
2019-03-22T12:35:38.914Z,38.72
2019-03-22T12:36:38.899Z,38.62
2019-03-22T12:37:38.879Z,38.81
2019-03-22T12:38:38.865Z,38.53
2019-03-22T12:39:38.849Z,38.53
2019-03-22T12:40:38.836Z,38.33
2019-03-22T12:41:38.821Z,38.43
2019-03-22T12:42:38.804Z,38.53
2019-03-22T12:43:38.796Z,38.33
2019-03-22T12:44:38.776Z,38.33
2019-03-22T12:45:38.759Z,38.24
2019-03-22T12:46:38.748Z,38.53
2019-03-22T12:47:38.727Z,38.43
2019-03-22T12:48:38.719Z,38.53
2019-03-22T12:49:38.699Z,38.24
2019-03-22T12:50:38.687Z,38.33
2019-03-22T12:51:38.670Z,38.45
2019-03-22T12:52:38.654Z,38.26
2019-03-22T12:53:38.641Z,38.26
2019-03-22T12:54:38.619Z,38.06